Time;durP1;ratioP1;P1;durP2;ratioP2;P2;SDS_P1;SDS_P2;PMS_P1;PMS_P2;Temp;Humidity;BMP_temperature;BMP_pressure;BME280_temperature;BME280_humidity;BME280_pressure;Samples;Min_cycle;Max_cycle;Signal;HPM_P1;HPM_P2
2023/10/21 00:00:23;;;;;;;11.90;4.70;;;;;;;;;;5100529;28;20008;-69
2023/10/21 00:03:09;;;;;;;15.18;5.10;;;;;;;;;;5116134;28;20348;-69
2023/10/21 00:05:55;;;;;;;11.82;4.53;;;;;;;;;;5115898;28;20429;-68
2023/10/21 00:08:40;;;;;;;9.15;4.28;;;;;;;;;;5116292;28;20463;-70
2023/10/21 00:11:26;;;;;;;13.05;4.50;;;;;;;;;;5116223;28;20034;-70
2023/10/21 00:14:11;;;;;;;11.25;4.00;;;;;;;;;;5117159;28;20023;-70
2023/10/21 00:16:57;;;;;;;7.18;3.78;;;;;;;;;;5101754;28;20031;-73
2023/10/21 00:19:43;;;;;;;8.15;3.70;;;;;;;;;;5116159;28;20103;-77
2023/10/21 00:22:28;;;;;;;11.18;4.03;;;;;;;;;;5101692;28;20023;-71
2023/10/21 00:25:14;;;;;;;14.25;4.13;;;;;;;;;;5115745;28;20190;-70
2023/10/21 00:27:59;;;;;;;8.98;4.18;;;;;;;;;;5116993;28;20436;-71
2023/10/21 00:30:48;;;;;;;12.27;4.07;;;;;;;;;;5115358;28;20032;-71
2023/10/21 00:33:33;;;;;;;11.18;3.80;;;;;;;;;;5100800;28;20030;-71
2023/10/21 00:36:19;;;;;;;13.05;3.60;;;;;;;;;;5116246;28;20055;-71
2023/10/21 00:39:10;;;;;;;10.10;4.00;;;;;;;;;;5101140;28;20419;-71
2023/10/21 00:41:56;;;;;;;13.57;4.07;;;;;;;;;;5101529;28;20463;-71
2023/10/21 00:44:41;;;;;;;11.98;4.05;;;;;;;;;;5115676;28;20034;-71
2023/10/21 00:47:27;;;;;;;9.20;3.65;;;;;;;;;;5116086;28;20023;-72
2023/10/21 00:50:13;;;;;;;16.58;4.70;;;;;;;;;;5115243;28;20462;-72
2023/10/21 00:52:59;;;;;;;11.05;4.20;;;;;;;;;;5095739;28;20063;-72
2023/10/21 00:55:44;;;;;;;13.93;3.97;;;;;;;;;;5096298;28;20028;-71
2023/10/21 00:58:33;;;;;;;11.93;4.82;;;;;;;;;;5096009;28;20141;-70
2023/10/21 01:01:18;;;;;;;17.10;4.65;;;;;;;;;;5080897;28;20413;-71
2023/10/21 01:04:05;;;;;;;13.82;4.25;;;;;;;;;;5095764;28;20036;-71
2023/10/21 01:06:50;;;;;;;12.70;4.50;;;;;;;;;;5081689;28;20076;-71
2023/10/21 01:09:36;;;;;;;12.60;4.50;;;;;;;;;;5095397;28;20035;-70
2023/10/21 01:12:22;;;;;;;15.02;5.25;;;;;;;;;;5095905;28;20437;-71
2023/10/21 01:15:08;;;;;;;16.98;5.88;;;;;;;;;;5095787;28;20111;-70
2023/10/21 01:17:53;;;;;;;15.40;6.53;;;;;;;;;;5094375;28;20060;-71
2023/10/21 01:20:42;;;;;;;14.52;5.82;;;;;;;;;;5094263;28;20038;-71
2023/10/21 01:23:28;;;;;;;13.98;6.28;;;;;;;;;;5094411;28;20020;-70
2023/10/21 01:26:13;;;;;;;14.52;6.88;;;;;;;;;;5095250;28;20342;-70
2023/10/21 01:28:59;;;;;;;16.58;7.13;;;;;;;;;;5096268;28;20028;-71
2023/10/21 01:31:44;;;;;;;14.70;7.47;;;;;;;;;;5094564;28;20043;-71
2023/10/21 01:34:30;;;;;;;13.55;8.30;;;;;;;;;;5095180;28;20107;-71
2023/10/21 01:37:15;;;;;;;20.27;9.10;;;;;;;;;;5094155;28;20082;-71
2023/10/21 01:40:01;;;;;;;23.48;9.38;;;;;;;;;;5081583;28;20097;-70
2023/10/21 01:42:47;;;;;;;19.98;8.65;;;;;;;;;;5094044;28;20048;-70
2023/10/21 01:45:36;;;;;;;23.00;10.10;;;;;;;;;;5079516;28;20020;-71
2023/10/21 01:48:22;;;;;;;19.95;10.25;;;;;;;;;;5095793;28;20023;-70
2023/10/21 01:51:08;;;;;;;22.73;11.27;;;;;;;;;;5102179;28;20051;-71
2023/10/21 01:53:54;;;;;;;22.23;11.10;;;;;;;;;;5115267;28;20030;-71
2023/10/21 01:56:39;;;;;;;22.50;11.07;;;;;;;;;;5114601;28;20034;-71
2023/10/21 01:59:25;;;;;;;23.48;10.52;;;;;;;;;;5100604;28;20016;-70
2023/10/21 02:02:10;;;;;;;24.98;11.13;;;;;;;;;;5100962;28;20409;-70
2023/10/21 02:04:56;;;;;;;29.75;11.77;;;;;;;;;;5114954;28;20443;-71
2023/10/21 02:07:42;;;;;;;21.13;11.45;;;;;;;;;;5099819;28;20119;-72
2023/10/21 02:10:28;;;;;;;20.90;11.57;;;;;;;;;;5115059;28;20051;-73
2023/10/21 02:13:13;;;;;;;31.35;11.52;;;;;;;;;;5114702;28;20031;-73
2023/10/21 02:15:59;;;;;;;33.03;11.35;;;;;;;;;;5106415;28;20436;-71
2023/10/21 02:18:44;;;;;;;23.13;11.90;;;;;;;;;;5078490;28;20074;-72
2023/10/21 02:21:30;;;;;;;17.70;9.40;;;;;;;;;;5094400;28;20020;-73
2023/10/21 02:24:15;;;;;;;19.75;9.07;;;;;;;;;;5080843;28;20019;-71
2023/10/21 02:27:02;;;;;;;23.00;9.52;;;;;;;;;;5093654;28;20058;-72
2023/10/21 02:29:48;;;;;;;19.17;9.40;;;;;;;;;;5094943;28;20448;-72
2023/10/21 02:32:33;;;;;;;21.40;9.75;;;;;;;;;;5093575;28;20016;-72
2023/10/21 02:35:19;;;;;;;20.25;10.45;;;;;;;;;;5093559;28;20130;-71
2023/10/21 02:38:04;;;;;;;20.88;10.25;;;;;;;;;;5080281;28;20031;-72
2023/10/21 02:40:50;;;;;;;25.13;10.10;;;;;;;;;;5093165;28;20345;-72
2023/10/21 02:43:36;;;;;;;19.35;9.93;;;;;;;;;;5094791;28;20035;-72
2023/10/21 02:46:21;;;;;;;20.67;9.85;;;;;;;;;;5093841;28;20035;-72
2023/10/21 02:49:07;;;;;;;24.15;10.20;;;;;;;;;;5094804;28;20085;-71
2023/10/21 02:51:52;;;;;;;22.63;10.20;;;;;;;;;;5107303;28;20078;-71
2023/10/21 02:54:38;;;;;;;20.20;9.68;;;;;;;;;;5115357;28;20020;-72
2023/10/21 02:57:23;;;;;;;28.33;10.07;;;;;;;;;;5103013;28;20016;-72
2023/10/21 03:00:10;;;;;;;18.98;9.90;;;;;;;;;;5117691;28;20106;-72
2023/10/21 03:02:56;;;;;;;23.23;9.98;;;;;;;;;;5117586;28;20020;-72
2023/10/21 03:05:42;;;;;;;18.77;10.45;;;;;;;;;;5116928;28;20027;-72
2023/10/21 03:08:28;;;;;;;21.73;10.43;;;;;;;;;;5118317;28;20477;-72
2023/10/21 03:11:14;;;;;;;23.65;10.48;;;;;;;;;;5102572;28;20016;-72
2023/10/21 03:13:59;;;;;;;22.77;10.90;;;;;;;;;;5117205;28;20061;-72
2023/10/21 03:16:48;;;;;;;24.35;10.00;;;;;;;;;;5118230;28;20447;-72
2023/10/21 03:19:34;;;;;;;21.92;10.68;;;;;;;;;;5118538;28;20046;-71
2023/10/21 03:22:20;;;;;;;21.65;11.23;;;;;;;;;;5102707;28;20019;-72
2023/10/21 03:25:06;;;;;;;24.55;10.35;;;;;;;;;;5118685;28;20119;-71
2023/10/21 03:27:51;;;;;;;25.98;10.70;;;;;;;;;;5117197;28;20041;-72
2023/10/21 03:30:37;;;;;;;25.58;10.25;;;;;;;;;;5117340;28;20053;-72
2023/10/21 03:33:23;;;;;;;22.40;10.13;;;;;;;;;;5118918;27;20050;-72
2023/10/21 03:36:08;;;;;;;23.60;11.00;;;;;;;;;;5116926;28;20026;-71
2023/10/21 03:38:54;;;;;;;21.15;10.57;;;;;;;;;;5118220;28;20023;-71
2023/10/21 03:41:40;;;;;;;21.92;10.05;;;;;;;;;;5118081;28;20019;-73
2023/10/21 03:44:26;;;;;;;21.27;9.80;;;;;;;;;;5116558;28;20054;-72
2023/10/21 03:47:11;;;;;;;23.73;10.60;;;;;;;;;;5118759;27;20461;-71
2023/10/21 03:49:57;;;;;;;24.92;11.25;;;;;;;;;;5116390;28;20027;-72
2023/10/21 03:52:43;;;;;;;22.50;11.93;;;;;;;;;;5117617;28;20058;-74
2023/10/21 03:55:28;;;;;;;23.23;10.77;;;;;;;;;;5116413;28;20020;-72
2023/10/21 03:58:14;;;;;;;25.98;11.25;;;;;;;;;;5116229;28;20031;-73
2023/10/21 04:00:59;;;;;;;22.40;11.52;;;;;;;;;;5118184;27;20332;-73
2023/10/21 04:03:45;;;;;;;22.60;11.35;;;;;;;;;;5116811;28;20020;-72
2023/10/21 04:06:31;;;;;;;27.63;12.63;;;;;;;;;;5114764;28;20019;-71
2023/10/21 04:09:17;;;;;;;26.58;11.80;;;;;;;;;;5116128;28;20466;-72
2023/10/21 04:12:02;;;;;;;26.45;13.80;;;;;;;;;;5116221;28;20045;-72
2023/10/21 04:14:48;;;;;;;23.77;12.40;;;;;;;;;;5115999;28;20133;-71
2023/10/21 04:17:34;;;;;;;22.10;13.13;;;;;;;;;;5088302;28;20330;-72
2023/10/21 04:20:20;;;;;;;28.50;13.05;;;;;;;;;;5080605;28;20048;-73
2023/10/21 04:23:05;;;;;;;24.85;13.25;;;;;;;;;;5097327;28;20356;-72
2023/10/21 04:25:51;;;;;;;27.60;13.68;;;;;;;;;;5089761;28;20078;-73
2023/10/21 04:28:37;;;;;;;26.27;14.05;;;;;;;;;;5095945;28;20026;-73
2023/10/21 04:31:22;;;;;;;31.38;13.63;;;;;;;;;;5096652;28;20055;-72
2023/10/21 04:34:08;;;;;;;29.65;13.93;;;;;;;;;;5096096;28;20028;-72
2023/10/21 04:36:54;;;;;;;25.63;13.43;;;;;;;;;;5095972;28;20440;-73
2023/10/21 04:39:39;;;;;;;30.13;14.40;;;;;;;;;;5095908;28;20024;-73
2023/10/21 04:42:25;;;;;;;27.58;14.82;;;;;;;;;;5096732;28;20055;-73
2023/10/21 04:45:11;;;;;;;27.17;14.90;;;;;;;;;;5102000;28;20016;-73
2023/10/21 04:47:57;;;;;;;31.80;15.63;;;;;;;;;;5116217;28;20027;-73
2023/10/21 04:50:42;;;;;;;31.58;15.68;;;;;;;;;;5116206;28;20492;-73
2023/10/21 04:53:28;;;;;;;26.77;14.80;;;;;;;;;;5117182;27;20028;-72
2023/10/21 04:56:13;;;;;;;33.10;16.30;;;;;;;;;;5116154;28;20489;-72
2023/10/21 04:58:59;;;;;;;34.03;17.08;;;;;;;;;;5116578;28;20020;-73
2023/10/21 05:01:45;;;;;;;26.58;15.38;;;;;;;;;;5116785;28;20054;-73
2023/10/21 05:04:31;;;;;;;29.92;15.70;;;;;;;;;;5101226;28;20035;-72
2023/10/21 05:07:17;;;;;;;33.40;15.10;;;;;;;;;;5114685;28;20034;-73
2023/10/21 05:10:04;;;;;;;27.52;14.38;;;;;;;;;;5117072;28;20059;-73
2023/10/21 05:12:50;;;;;;;28.58;14.02;;;;;;;;;;5116933;28;20035;-72
2023/10/21 05:15:36;;;;;;;28.02;14.32;;;;;;;;;;5117180;27;20085;-72
2023/10/21 05:18:22;;;;;;;27.08;14.07;;;;;;;;;;5115451;28;20046;-73
2023/10/21 05:21:10;;;;;;;23.45;13.20;;;;;;;;;;5117249;28;20098;-74
2023/10/21 05:23:57;;;;;;;26.90;13.25;;;;;;;;;;5117869;28;20502;-72
2023/10/21 05:26:42;;;;;;;37.80;13.43;;;;;;;;;;5101861;28;20170;-72
2023/10/21 05:29:28;;;;;;;27.67;13.63;;;;;;;;;;5100863;28;20030;-73
2023/10/21 05:32:14;;;;;;;23.95;11.07;;;;;;;;;;5116373;28;20023;-72
2023/10/21 05:35:00;;;;;;;20.00;10.23;;;;;;;;;;5101458;28;20015;-73
2023/10/21 05:37:46;;;;;;;25.77;11.02;;;;;;;;;;5100852;28;20026;-73
2023/10/21 05:40:31;;;;;;;22.52;10.52;;;;;;;;;;5116314;28;20024;-73
2023/10/21 05:43:17;;;;;;;31.13;11.02;;;;;;;;;;5101517;28;20062;-73
2023/10/21 05:46:03;;;;;;;19.17;9.75;;;;;;;;;;5115316;28;20039;-73
2023/10/21 05:48:48;;;;;;;19.98;11.02;;;;;;;;;;5100203;28;20359;-73
2023/10/21 05:51:34;;;;;;;18.00;8.98;;;;;;;;;;5114290;28;20100;-73
2023/10/21 05:54:20;;;;;;;36.80;11.40;;;;;;;;;;5115836;28;20066;-73
2023/10/21 05:57:07;;;;;;;30.67;13.57;;;;;;;;;;5115012;28;20044;-72
2023/10/21 05:59:52;;;;;;;22.15;9.65;;;;;;;;;;5100196;28;20100;-72
2023/10/21 06:02:38;;;;;;;26.92;9.13;;;;;;;;;;5100029;28;20054;-74
2023/10/21 06:05:23;;;;;;;18.23;7.72;;;;;;;;;;5115577;28;20523;-73
2023/10/21 06:08:10;;;;;;;17.02;8.40;;;;;;;;;;5101116;28;20020;-73
2023/10/21 06:10:56;;;;;;;21.23;9.82;;;;;;;;;;5115477;28;20047;-73
2023/10/21 06:13:41;;;;;;;17.83;9.90;;;;;;;;;;5115949;28;20462;-73
2023/10/21 06:16:27;;;;;;;20.45;10.27;;;;;;;;;;5100554;28;20046;-72
2023/10/21 06:19:13;;;;;;;21.73;11.10;;;;;;;;;;5115638;28;20008;-73
2023/10/21 06:21:58;;;;;;;21.80;11.23;;;;;;;;;;5115167;28;20058;-73
2023/10/21 06:24:45;;;;;;;24.77;11.35;;;;;;;;;;5114544;28;20024;-72
2023/10/21 06:27:30;;;;;;;21.80;12.27;;;;;;;;;;5114870;28;20035;-73
2023/10/21 06:30:16;;;;;;;19.75;11.85;;;;;;;;;;5114146;28;20351;-73
2023/10/21 06:33:03;;;;;;;20.05;11.60;;;;;;;;;;5115274;28;20023;-73
2023/10/21 06:35:49;;;;;;;23.60;11.93;;;;;;;;;;5099884;28;20019;-76
2023/10/21 06:38:35;;;;;;;22.73;11.35;;;;;;;;;;5101159;28;20016;-76
2023/10/21 06:41:21;;;;;;;22.65;10.48;;;;;;;;;;5100836;28;20016;-76
2023/10/21 06:44:08;;;;;;;22.48;10.18;;;;;;;;;;5114184;28;20031;-75
2023/10/21 06:46:53;;;;;;;22.70;10.65;;;;;;;;;;5100065;28;20432;-73
2023/10/21 06:49:39;;;;;;;25.73;11.38;;;;;;;;;;5100576;28;20099;-76
2023/10/21 06:52:25;;;;;;;25.38;10.23;;;;;;;;;;5114763;28;20036;-75
2023/10/21 06:55:10;;;;;;;20.80;9.70;;;;;;;;;;5115679;28;20043;-75
2023/10/21 06:57:57;;;;;;;26.52;10.45;;;;;;;;;;5114826;28;20084;-75
2023/10/21 07:00:42;;;;;;;21.98;9.68;;;;;;;;;;5115453;28;20111;-75
2023/10/21 07:03:29;;;;;;;26.08;10.27;;;;;;;;;;5100203;28;20028;-75
2023/10/21 07:06:16;;;;;;;21.92;10.88;;;;;;;;;;5114521;28;20024;-76
2023/10/21 07:09:02;;;;;;;21.05;11.00;;;;;;;;;;5114723;28;20111;-74
2023/10/21 07:11:48;;;;;;;31.38;10.93;;;;;;;;;;5114091;28;20023;-74
2023/10/21 07:14:33;;;;;;;22.77;10.73;;;;;;;;;;5113934;28;20015;-75
2023/10/21 07:17:19;;;;;;;24.85;10.32;;;;;;;;;;5115820;28;20020;-75
2023/10/21 07:20:05;;;;;;;21.52;10.05;;;;;;;;;;5102783;28;20469;-75
2023/10/21 07:22:51;;;;;;;25.02;9.75;;;;;;;;;;5115687;28;20061;-73
2023/10/21 07:25:38;;;;;;;16.73;8.73;;;;;;;;;;5115339;28;20019;-75
2023/10/21 07:28:23;;;;;;;21.40;8.68;;;;;;;;;;5100808;28;20019;-75
2023/10/21 07:31:09;;;;;;;21.83;9.63;;;;;;;;;;5114380;28;20043;-74
2023/10/21 07:33:55;;;;;;;18.02;9.40;;;;;;;;;;5115514;28;20016;-74
2023/10/21 07:36:41;;;;;;;29.02;10.38;;;;;;;;;;5085498;28;20317;-75
2023/10/21 07:39:26;;;;;;;20.60;9.38;;;;;;;;;;5114512;28;20030;-75
2023/10/21 07:42:13;;;;;;;32.30;9.70;;;;;;;;;;5116871;28;20427;-75
2023/10/21 07:44:58;;;;;;;24.83;10.70;;;;;;;;;;5119077;28;20019;-75
2023/10/21 07:47:44;;;;;;;29.50;10.60;;;;;;;;;;5117145;28;20055;-75
2023/10/21 07:50:30;;;;;;;24.83;10.15;;;;;;;;;;5103059;27;20073;-74
2023/10/21 07:53:17;;;;;;;23.63;10.10;;;;;;;;;;5117328;28;20040;-75
2023/10/21 07:56:03;;;;;;;23.00;9.75;;;;;;;;;;5117566;28;20050;-76
2023/10/21 07:58:48;;;;;;;26.63;9.80;;;;;;;;;;5117383;28;20016;-74
2023/10/21 08:01:34;;;;;;;19.52;9.27;;;;;;;;;;5118070;28;20047;-74
2023/10/21 08:04:20;;;;;;;21.88;9.48;;;;;;;;;;5117002;28;20034;-75
2023/10/21 08:07:05;;;;;;;46.75;17.75;;;;;;;;;;5116919;28;20020;-76
2023/10/21 08:09:51;;;;;;;17.30;8.30;;;;;;;;;;5116905;28;20023;-76
2023/10/21 08:12:37;;;;;;;23.70;8.82;;;;;;;;;;5116744;28;20031;-77
2023/10/21 08:15:24;;;;;;;17.15;8.45;;;;;;;;;;5118031;28;20019;-75
2023/10/21 08:18:09;;;;;;;18.13;8.35;;;;;;;;;;5118137;27;20030;-75
2023/10/21 08:20:55;;;;;;;23.45;8.95;;;;;;;;;;5101452;28;20410;-75
2023/10/21 08:23:41;;;;;;;13.38;8.00;;;;;;;;;;5117075;28;20077;-74
2023/10/21 08:26:28;;;;;;;18.35;7.30;;;;;;;;;;5117793;28;20083;-73
2023/10/21 08:29:16;;;;;;;16.60;7.68;;;;;;;;;;5116525;28;20396;-73
2023/10/21 08:32:02;;;;;;;21.42;8.77;;;;;;;;;;5117545;28;20035;-76
2023/10/21 08:34:47;;;;;;;25.38;11.05;;;;;;;;;;5118272;27;20016;-75
2023/10/21 08:37:33;;;;;;;19.48;9.95;;;;;;;;;;5118085;27;20011;-75
2023/10/21 08:40:18;;;;;;;17.17;7.20;;;;;;;;;;5116197;28;20348;-75
2023/10/21 08:43:04;;;;;;;11.82;6.20;;;;;;;;;;5116051;28;20055;-75
2023/10/21 08:45:50;;;;;;;18.35;7.03;;;;;;;;;;5117858;28;20034;-73
2023/10/21 08:48:36;;;;;;;21.67;6.75;;;;;;;;;;5117563;28;20353;-75
2023/10/21 08:51:24;;;;;;;14.38;5.50;;;;;;;;;;5116042;28;20433;-76
2023/10/21 08:54:12;;;;;;;28.05;9.13;;;;;;;;;;5116028;28;20333;-75
2023/10/21 08:56:58;;;;;;;16.80;8.45;;;;;;;;;;5101694;28;20110;-76
2023/10/21 08:59:43;;;;;;;13.57;6.43;;;;;;;;;;5115377;28;20368;-75
2023/10/21 09:02:29;;;;;;;25.25;9.23;;;;;;;;;;5116856;28;20019;-75
2023/10/21 09:05:15;;;;;;;15.88;6.50;;;;;;;;;;5118163;28;20034;-74
2023/10/21 09:08:00;;;;;;;21.80;7.22;;;;;;;;;;5116384;28;20036;-73
2023/10/21 09:10:56;;;;;;;16.95;6.93;;;;;;;;;;5116932;28;20096;-73
2023/10/21 09:13:42;;;;;;;20.02;6.78;;;;;;;;;;5117419;28;20435;-73
2023/10/21 09:16:30;;;;;;;12.98;6.32;;;;;;;;;;5116299;28;20085;-72
2023/10/21 09:19:23;;;;;;;17.10;6.10;;;;;;;;;;5100974;28;20026;-72
2023/10/21 09:22:22;;;;;;;15.43;6.05;;;;;;;;;;5116844;28;20043;-74
2023/10/21 09:25:08;;;;;;;15.50;6.40;;;;;;;;;;5115447;28;20176;-73
2023/10/21 09:27:55;;;;;;;14.75;6.13;;;;;;;;;;5116014;28;20035;-73
2023/10/21 09:30:41;;;;;;;15.68;5.97;;;;;;;;;;5115138;28;20031;-73
2023/10/21 09:33:27;;;;;;;14.98;5.40;;;;;;;;;;5115653;28;20055;-73
2023/10/21 09:36:13;;;;;;;18.25;6.07;;;;;;;;;;5101199;28;20043;-73
2023/10/21 09:38:58;;;;;;;12.70;5.55;;;;;;;;;;5117221;27;20085;-74
2023/10/21 09:41:45;;;;;;;24.27;6.40;;;;;;;;;;5116948;28;20031;-74
2023/10/21 09:44:31;;;;;;;10.93;5.10;;;;;;;;;;5115599;28;20042;-74
2023/10/21 09:47:17;;;;;;;13.23;4.97;;;;;;;;;;5116247;28;20016;-74
2023/10/21 09:50:05;;;;;;;14.57;4.88;;;;;;;;;;5100797;28;20027;-72
2023/10/21 09:52:59;;;;;;;11.93;4.60;;;;;;;;;;5116379;28;20109;-74
2023/10/21 09:55:47;;;;;;;12.73;4.45;;;;;;;;;;5100413;28;20359;-74
2023/10/21 09:58:33;;;;;;;17.90;5.90;;;;;;;;;;5117423;28;20161;-74
2023/10/21 10:01:23;;;;;;;14.18;4.85;;;;;;;;;;5116127;28;20019;-73
2023/10/21 10:04:13;;;;;;;14.05;5.25;;;;;;;;;;5115460;28;20152;-74
2023/10/21 10:06:59;;;;;;;19.73;5.60;;;;;;;;;;5114308;28;20110;-73
2023/10/21 10:09:45;;;;;;;15.60;5.22;;;;;;;;;;5116317;28;20020;-74
2023/10/21 10:12:37;;;;;;;13.50;5.70;;;;;;;;;;5113977;28;20088;-73
2023/10/21 10:15:27;;;;;;;14.75;5.10;;;;;;;;;;5115644;28;20028;-73
2023/10/21 10:18:25;;;;;;;13.55;5.22;;;;;;;;;;5115047;28;20023;-74
2023/10/21 10:21:13;;;;;;;13.75;5.60;;;;;;;;;;5115451;28;20035;-73
2023/10/21 10:24:02;;;;;;;14.07;5.25;;;;;;;;;;5101913;28;20016;-75
2023/10/21 10:26:51;;;;;;;12.65;4.85;;;;;;;;;;5116167;28;20012;-72
2023/10/21 10:29:37;;;;;;;13.05;5.43;;;;;;;;;;5115890;28;20076;-74
2023/10/21 10:32:25;;;;;;;14.32;5.40;;;;;;;;;;5115598;28;20057;-73
2023/10/21 10:35:27;;;;;;;10.48;4.95;;;;;;;;;;5115750;28;20462;-73
2023/10/21 10:38:17;;;;;;;14.02;5.20;;;;;;;;;;5115669;28;20078;-74
2023/10/21 10:41:07;;;;;;;20.20;5.15;;;;;;;;;;5114325;28;20020;-74
2023/10/21 10:43:57;;;;;;;14.23;5.43;;;;;;;;;;5100242;28;20046;-74
2023/10/21 10:46:42;;;;;;;18.75;5.28;;;;;;;;;;5115825;28;20375;-73
2023/10/21 10:49:28;;;;;;;12.65;5.72;;;;;;;;;;5113788;28;20092;-74
2023/10/21 10:52:24;;;;;;;18.55;6.05;;;;;;;;;;5099502;28;20063;-73
2023/10/21 10:55:11;;;;;;;18.13;5.57;;;;;;;;;;5114841;28;20026;-74
2023/10/21 10:57:58;;;;;;;12.70;5.25;;;;;;;;;;5100631;28;20019;-73
2023/10/21 11:00:45;;;;;;;12.25;5.30;;;;;;;;;;5113453;28;20034;-76
2023/10/21 11:03:36;;;;;;;19.70;6.28;;;;;;;;;;5098672;28;20016;-76
2023/10/21 11:06:23;;;;;;;18.40;6.40;;;;;;;;;;5114458;28;20012;-76
2023/10/21 11:09:16;;;;;;;14.98;5.55;;;;;;;;;;5113985;28;20463;-76
2023/10/21 11:12:02;;;;;;;14.48;5.25;;;;;;;;;;5105478;28;20052;-76
2023/10/21 11:14:48;;;;;;;15.60;5.28;;;;;;;;;;5111493;28;20055;-76
2023/10/21 11:17:33;;;;;;;17.80;5.13;;;;;;;;;;5119254;28;20055;-74
2023/10/21 11:20:19;;;;;;;14.82;5.20;;;;;;;;;;5100445;28;20020;-78
2023/10/21 11:23:09;;;;;;;16.88;5.65;;;;;;;;;;5098510;28;20089;-71
2023/10/21 11:25:56;;;;;;;18.00;5.97;;;;;;;;;;5098782;28;20024;-72
2023/10/21 11:28:42;;;;;;;20.05;5.35;;;;;;;;;;5098947;28;20105;-71
2023/10/21 11:31:28;;;;;;;13.93;4.47;;;;;;;;;;5111111;28;20093;-70
2023/10/21 11:34:14;;;;;;;19.45;4.68;;;;;;;;;;5117131;28;20031;-70
2023/10/21 11:36:59;;;;;;;14.20;5.35;;;;;;;;;;5117487;28;20042;-71
2023/10/21 11:39:46;;;;;;;14.40;4.57;;;;;;;;;;5117481;28;20016;-72
2023/10/21 11:42:32;;;;;;;18.73;4.78;;;;;;;;;;5117331;28;20020;-70
2023/10/21 11:45:21;;;;;;;16.05;3.60;;;;;;;;;;5102361;28;20058;-70
2023/10/21 11:48:10;;;;;;;11.93;3.55;;;;;;;;;;5116707;28;20016;-70
2023/10/21 11:50:58;;;;;;;12.63;4.10;;;;;;;;;;5117356;28;20051;-70
2023/10/21 11:53:46;;;;;;;12.32;3.63;;;;;;;;;;5116985;28;20027;-70
2023/10/21 12:12:13;;;;;;;11.13;3.85;;;;;;;;;;5117381;28;20485;-70
2023/10/21 12:18:13;;;;;;;17.48;3.97;;;;;;;;;;5116229;28;20016;-72
2023/10/21 12:33:43;;;;;;;15.90;4.63;;;;;;;;;;5115884;28;20021;-72
2023/10/21 12:42:00;;;;;;;15.40;4.68;;;;;;;;;;5116777;28;20020;-72
2023/10/21 12:44:51;;;;;;;17.88;4.63;;;;;;;;;;5114374;28;20089;-71
2023/10/21 12:47:37;;;;;;;15.07;3.97;;;;;;;;;;5115662;28;20328;-71
2023/10/21 12:50:22;;;;;;;18.73;3.97;;;;;;;;;;5102392;28;20027;-71
2023/10/21 12:53:12;;;;;;;12.40;3.50;;;;;;;;;;5115650;28;20163;-72
2023/10/21 12:55:58;;;;;;;13.75;3.85;;;;;;;;;;5114588;28;20080;-72
2023/10/21 12:58:43;;;;;;;14.98;4.15;;;;;;;;;;5115153;28;20024;-71
2023/10/21 13:01:30;;;;;;;14.43;3.80;;;;;;;;;;5115403;28;20404;-71
2023/10/21 13:04:18;;;;;;;20.65;4.00;;;;;;;;;;5115599;28;20034;-71
2023/10/21 13:07:04;;;;;;;16.00;4.47;;;;;;;;;;5100745;28;20027;-71
2023/10/21 13:09:50;;;;;;;10.70;3.60;;;;;;;;;;5114850;28;20027;-71
2023/10/21 13:12:36;;;;;;;11.25;3.80;;;;;;;;;;5116065;28;20443;-71
2023/10/21 13:15:23;;;;;;;11.55;3.72;;;;;;;;;;5114722;28;20036;-73
2023/10/21 13:18:09;;;;;;;11.00;3.63;;;;;;;;;;5100447;28;20030;-70
2023/10/21 13:20:55;;;;;;;10.32;3.58;;;;;;;;;;5100788;28;20103;-71
2023/10/21 13:23:40;;;;;;;13.98;3.83;;;;;;;;;;5116897;28;20016;-71
2023/10/21 13:26:26;;;;;;;14.93;3.97;;;;;;;;;;5101344;28;20517;-71
2023/10/21 13:29:11;;;;;;;14.65;3.42;;;;;;;;;;5115316;28;20027;-72
2023/10/21 13:31:58;;;;;;;12.85;3.80;;;;;;;;;;5113492;28;20042;-71
2023/10/21 13:34:43;;;;;;;14.48;3.60;;;;;;;;;;5114990;28;20031;-71
2023/10/21 13:37:29;;;;;;;11.18;3.20;;;;;;;;;;5116202;28;20050;-71
2023/10/21 13:40:15;;;;;;;15.73;4.03;;;;;;;;;;5114232;28;20026;-71
2023/10/21 13:43:03;;;;;;;12.95;3.38;;;;;;;;;;5113988;28;20020;-72
2023/10/21 13:45:50;;;;;;;18.00;3.75;;;;;;;;;;5115566;28;20341;-71
2023/10/21 13:48:35;;;;;;;11.95;3.30;;;;;;;;;;5091914;28;20055;-71
2023/10/21 13:51:21;;;;;;;11.63;3.42;;;;;;;;;;5114155;28;20047;-71
2023/10/21 13:54:11;;;;;;;11.13;3.80;;;;;;;;;;5114092;28;20023;-71
2023/10/21 13:56:59;;;;;;;15.57;3.72;;;;;;;;;;5115157;28;20106;-71
2023/10/21 13:59:47;;;;;;;11.65;4.20;;;;;;;;;;5113747;28;20015;-71
2023/10/21 14:02:33;;;;;;;15.85;4.47;;;;;;;;;;5113441;28;20097;-71
2023/10/21 14:05:18;;;;;;;16.45;4.60;;;;;;;;;;5113754;28;20034;-72
2023/10/21 14:08:08;;;;;;;18.40;4.57;;;;;;;;;;5114142;28;20427;-72
2023/10/21 14:10:54;;;;;;;11.85;4.28;;;;;;;;;;5113775;28;20055;-71
2023/10/21 14:13:40;;;;;;;13.13;5.13;;;;;;;;;;5099067;28;20055;-77
2023/10/21 14:16:25;;;;;;;10.98;5.30;;;;;;;;;;5114723;28;20459;-78
2023/10/21 14:19:11;;;;;;;15.57;5.25;;;;;;;;;;5115315;28;20028;-78
2023/10/21 14:21:57;;;;;;;14.88;5.50;;;;;;;;;;5114668;28;20015;-77
2023/10/21 14:24:42;;;;;;;14.00;5.72;;;;;;;;;;5115287;28;20058;-76
2023/10/21 14:27:28;;;;;;;14.07;5.53;;;;;;;;;;5099370;28;20020;-78
2023/10/21 14:30:14;;;;;;;19.73;5.88;;;;;;;;;;5113055;28;20536;-77
2023/10/21 14:33:00;;;;;;;19.70;5.53;;;;;;;;;;5113206;28;20032;-77
2023/10/21 14:35:47;;;;;;;14.93;7.68;;;;;;;;;;5113961;28;20103;-77
2023/10/21 14:38:34;;;;;;;22.50;10.23;;;;;;;;;;5114129;28;20062;-77
2023/10/21 14:41:19;;;;;;;15.77;7.45;;;;;;;;;;5097827;28;20099;-77
2023/10/21 14:44:05;;;;;;;22.13;8.25;;;;;;;;;;5113225;28;20034;-78
2023/10/21 14:46:52;;;;;;;20.23;7.45;;;;;;;;;;5093956;28;20410;-77
2023/10/21 14:49:37;;;;;;;27.60;7.20;;;;;;;;;;5114239;28;20015;-76
2023/10/21 14:52:23;;;;;;;24.95;6.85;;;;;;;;;;5117684;28;20103;-76
2023/10/21 14:55:08;;;;;;;25.65;7.60;;;;;;;;;;5117956;28;20027;-76
2023/10/21 14:57:54;;;;;;;26.05;7.47;;;;;;;;;;5118292;28;20095;-77
2023/10/21 15:00:43;;;;;;;16.13;8.07;;;;;;;;;;5118062;28;20019;-76
2023/10/21 15:03:29;;;;;;;22.08;8.93;;;;;;;;;;5102979;28;20050;-77
2023/10/21 15:06:14;;;;;;;25.05;9.60;;;;;;;;;;5101887;28;20431;-77
2023/10/21 15:09:00;;;;;;;24.50;9.07;;;;;;;;;;5093273;28;20106;-77
2023/10/21 15:11:46;;;;;;;28.75;9.77;;;;;;;;;;5084246;28;20515;-77
2023/10/21 15:14:31;;;;;;;33.08;9.13;;;;;;;;;;5102050;28;20027;-77
2023/10/21 15:17:17;;;;;;;30.80;10.00;;;;;;;;;;5118096;28;20094;-76
2023/10/21 15:20:03;;;;;;;30.63;8.98;;;;;;;;;;5103374;28;20026;-77
2023/10/21 15:22:51;;;;;;;21.50;9.35;;;;;;;;;;5117660;28;20058;-77
2023/10/21 15:25:37;;;;;;;26.10;9.05;;;;;;;;;;5118665;28;20027;-77
2023/10/21 15:28:23;;;;;;;27.83;9.48;;;;;;;;;;5118644;28;20043;-77
2023/10/21 15:31:10;;;;;;;26.77;9.88;;;;;;;;;;5117681;28;20024;-76
2023/10/21 15:33:57;;;;;;;30.08;9.57;;;;;;;;;;5116911;28;20383;-76
2023/10/21 15:36:43;;;;;;;31.70;10.48;;;;;;;;;;5085144;28;20094;-76
2023/10/21 15:39:29;;;;;;;28.48;9.60;;;;;;;;;;5096787;28;20027;-76
2023/10/21 15:42:15;;;;;;;29.85;11.43;;;;;;;;;;5083491;28;20028;-76
2023/10/21 15:45:01;;;;;;;32.30;11.82;;;;;;;;;;5097705;28;20039;-77
2023/10/21 15:47:48;;;;;;;39.28;13.15;;;;;;;;;;5097551;28;20440;-76
2023/10/21 15:50:33;;;;;;;38.95;13.85;;;;;;;;;;5096308;28;20048;-76
2023/10/21 15:53:19;;;;;;;42.45;14.57;;;;;;;;;;5084340;27;20024;-76
2023/10/21 15:56:05;;;;;;;39.05;13.20;;;;;;;;;;5084594;28;20049;-75
2023/10/21 15:58:50;;;;;;;50.45;14.27;;;;;;;;;;5076517;28;20020;-75
2023/10/21 16:01:37;;;;;;;45.15;13.80;;;;;;;;;;5066032;28;20078;-76
2023/10/21 16:04:22;;;;;;;38.00;13.25;;;;;;;;;;5099069;28;20016;-76
2023/10/21 16:07:09;;;;;;;39.78;13.02;;;;;;;;;;5088661;28;20466;-76
2023/10/21 16:09:54;;;;;;;42.55;13.63;;;;;;;;;;5115001;28;20083;-77
2023/10/21 16:12:40;;;;;;;34.35;14.10;;;;;;;;;;5115538;28;20031;-76
2023/10/21 16:15:27;;;;;;;32.05;12.57;;;;;;;;;;5116063;28;20106;-76
2023/10/21 16:18:12;;;;;;;40.15;13.13;;;;;;;;;;5123118;28;20440;-77
2023/10/21 16:20:58;;;;;;;39.40;13.95;;;;;;;;;;5102507;28;20057;-77
2023/10/21 16:23:43;;;;;;;44.65;14.30;;;;;;;;;;5101797;28;20024;-77
2023/10/21 16:26:29;;;;;;;54.70;13.48;;;;;;;;;;5101837;28;20106;-78
2023/10/21 16:29:15;;;;;;;52.92;14.55;;;;;;;;;;5118286;28;20066;-77
2023/10/21 16:32:02;;;;;;;48.45;13.40;;;;;;;;;;5121833;28;20355;-78
2023/10/21 16:34:48;;;;;;;42.70;13.23;;;;;;;;;;5101315;28;20051;-77
2023/10/21 16:37:34;;;;;;;40.80;13.68;;;;;;;;;;5114755;28;20501;-76
2023/10/21 16:40:20;;;;;;;44.65;13.05;;;;;;;;;;5115176;28;20112;-76
2023/10/21 16:43:06;;;;;;;42.92;13.70;;;;;;;;;;5115692;28;20096;-76
2023/10/21 16:45:51;;;;;;;46.80;13.90;;;;;;;;;;5100739;28;20026;-76
2023/10/21 16:48:37;;;;;;;50.97;15.95;;;;;;;;;;5114401;28;20027;-76
2023/10/21 16:51:23;;;;;;;42.45;14.80;;;;;;;;;;5114784;28;20104;-75
2023/10/21 16:54:08;;;;;;;59.97;17.25;;;;;;;;;;5114932;28;20077;-76